Time;durP1;ratioP1;P1;durP2;ratioP2;P2;SDS_P1;SDS_P2;PMS_P1;PMS_P2;Temp;Humidity;BMP_temperature;BMP_pressure;BME280_temperature;BME280_humidity;BME280_pressure;Samples;Min_cycle;Max_cycle;Signal;HPM_P1;HPM_P2
2022/12/10 00:01:18;;;;;;;22.25;19.58;;;3.00;99.90;;;;;;6085479;23;20204;-79
2022/12/10 00:03:46;;;;;;;22.08;19.70;;;3.00;99.90;;;;;;6080293;23;20265;-78
2022/12/10 00:06:17;;;;;;;22.52;20.20;;;3.00;99.90;;;;;;6069514;23;20196;-79
2022/12/10 00:08:44;;;;;;;23.30;20.73;;;3.00;99.90;;;;;;6084566;23;20201;-79
2022/12/10 00:11:14;;;;;;;23.63;20.52;;;3.00;99.90;;;;;;6089353;23;20195;-78
2022/12/10 00:13:45;;;;;;;22.40;19.83;;;3.00;99.90;;;;;;6086519;23;20226;-79
2022/12/10 00:16:14;;;;;;;23.40;19.85;;;3.00;99.90;;;;;;6071556;23;20211;-79
2022/12/10 00:18:42;;;;;;;21.92;19.23;;;3.00;99.90;;;;;;6079957;23;20337;-78
2022/12/10 00:21:11;;;;;;;23.90;20.90;;;3.00;99.90;;;;;;6087214;23;20217;-78
2022/12/10 00:23:39;;;;;;;21.17;18.98;;;3.00;99.90;;;;;;6081753;23;20198;-79
2022/12/10 00:26:08;;;;;;;20.85;18.70;;;3.00;99.90;;;;;;6082215;23;20230;-79
2022/12/10 00:28:35;;;;;;;21.73;18.77;;;3.00;99.90;;;;;;6075179;23;20231;-79
2022/12/10 00:31:10;;;;;;;21.95;19.77;;;3.00;99.90;;;;;;6070408;23;20239;-78
2022/12/10 00:33:39;;;;;;;25.08;21.55;;;3.00;99.90;;;;;;6085474;23;20196;-78
2022/12/10 00:36:09;;;;;;;23.25;19.40;;;2.90;99.90;;;;;;6058976;23;20206;-79
2022/12/10 00:38:38;;;;;;;22.83;20.33;;;2.90;99.90;;;;;;6081591;23;20205;-79
2022/12/10 00:41:06;;;;;;;21.60;19.30;;;2.80;99.90;;;;;;6070402;23;20692;-79
2022/12/10 00:43:33;;;;;;;21.95;19.65;;;2.80;99.90;;;;;;6078305;23;20310;-79
2022/12/10 00:46:02;;;;;;;22.30;19.90;;;2.80;99.90;;;;;;6058106;23;20198;-79
2022/12/10 00:48:31;;;;;;;21.70;18.55;;;2.80;99.90;;;;;;6081571;23;20218;-79
2022/12/10 00:51:00;;;;;;;21.90;19.15;;;2.80;99.90;;;;;;6087153;23;20190;-79
2022/12/10 00:53:29;;;;;;;23.58;19.27;;;2.80;99.90;;;;;;6075937;23;20216;-80
2022/12/10 00:55:57;;;;;;;20.92;18.73;;;2.80;99.90;;;;;;6083384;23;20206;-80
2022/12/10 00:58:28;;;;;;;20.77;18.58;;;2.90;99.90;;;;;;6086436;23;20356;-80
2022/12/10 01:00:55;;;;;;;21.27;18.98;;;2.80;99.90;;;;;;6075858;23;20300;-80
2022/12/10 01:03:22;;;;;;;22.48;20.08;;;2.80;99.90;;;;;;6034200;23;20657;-80
2022/12/10 01:05:51;;;;;;;22.30;19.50;;;2.80;99.90;;;;;;6089427;23;20230;-80
2022/12/10 01:08:18;;;;;;;22.13;19.75;;;2.90;99.90;;;;;;6073435;23;20654;-80
2022/12/10 01:10:53;;;;;;;22.40;20.08;;;2.90;99.90;;;;;;6089117;23;20190;-80
2022/12/10 01:13:20;;;;;;;23.23;20.77;;;2.90;99.90;;;;;;6087891;23;20285;-80
2022/12/10 01:15:47;;;;;;;21.17;18.13;;;2.90;99.90;;;;;;6087852;23;20214;-80
2022/12/10 01:18:15;;;;;;;22.98;19.90;;;2.90;99.90;;;;;;6093413;23;20223;-80
2022/12/10 01:20:42;;;;;;;20.77;18.27;;;2.90;99.90;;;;;;6087991;23;20225;-79
2022/12/10 01:23:11;;;;;;;21.92;19.48;;;2.90;99.90;;;;;;6078172;23;20222;-81
2022/12/10 01:25:38;;;;;;;21.73;19.42;;;2.80;99.90;;;;;;6076278;23;20198;-81
2022/12/10 01:28:05;;;;;;;22.08;18.63;;;2.90;99.90;;;;;;6088967;23;20247;-78
2022/12/10 01:30:33;;;;;;;21.80;19.15;;;2.90;99.90;;;;;;6084853;23;20207;-78
2022/12/10 01:33:00;;;;;;;22.40;19.67;;;2.90;99.90;;;;;;6077657;23;20223;-79
2022/12/10 01:35:27;;;;;;;23.42;20.85;;;2.90;99.90;;;;;;6086432;23;20303;-79
2022/12/10 01:37:55;;;;;;;22.15;19.75;;;2.90;99.90;;;;;;6089049;23;20237;-78
2022/12/10 01:40:25;;;;;;;21.30;18.88;;;2.90;99.90;;;;;;6085038;23;20635;-79
2022/12/10 01:42:53;;;;;;;22.83;20.42;;;2.90;99.90;;;;;;6081516;23;20570;-79
2022/12/10 01:45:21;;;;;;;20.70;18.50;;;2.90;99.90;;;;;;6064054;23;20260;-79
2022/12/10 01:47:49;;;;;;;20.63;18.50;;;2.90;99.90;;;;;;6051381;23;20552;-78
2022/12/10 01:50:16;;;;;;;20.50;18.35;;;2.90;99.90;;;;;;6088319;23;20260;-78
2022/12/10 01:52:43;;;;;;;23.55;20.48;;;2.90;99.90;;;;;;6085321;23;20558;-79
2022/12/10 01:55:55;;;;;;;20.35;18.15;;;2.90;99.90;;;;;;6082594;23;20198;-79
2022/12/10 01:58:24;;;;;;;22.02;18.27;;;2.90;99.90;;;;;;6062380;23;20199;-78
2022/12/10 02:01:14;;;;;;;21.88;18.63;;;2.90;99.90;;;;;;6088696;23;20221;-78
2022/12/10 02:03:52;;;;;;;22.45;18.83;;;2.90;99.90;;;;;;6085695;23;20264;-79
2022/12/10 02:06:32;;;;;;;20.17;18.08;;;2.90;99.90;;;;;;6079304;23;20210;-79
2022/12/10 02:09:09;;;;;;;21.38;19.15;;;2.80;99.90;;;;;;6079880;23;20547;-79
2022/12/10 02:11:43;;;;;;;21.48;18.20;;;2.80;99.90;;;;;;6086882;23;20631;-78
2022/12/10 02:14:16;;;;;;;20.58;18.38;;;2.80;99.90;;;;;;6068620;23;20290;-79
2022/12/10 02:16:48;;;;;;;20.67;18.48;;;2.80;99.90;;;;;;6080061;23;20223;-78
2022/12/10 02:19:23;;;;;;;22.27;19.35;;;2.80;99.90;;;;;;6088593;23;20285;-78
2022/12/10 02:21:52;;;;;;;20.50;18.30;;;2.80;99.90;;;;;;6089313;23;20219;-78
2022/12/10 02:24:24;;;;;;;21.98;19.35;;;2.80;99.90;;;;;;6084199;23;20299;-78
2022/12/10 02:26:59;;;;;;;23.77;18.95;;;2.80;99.90;;;;;;6082769;23;20198;-78
2022/12/10 02:29:30;;;;;;;21.73;19.15;;;2.80;99.90;;;;;;6074524;23;20249;-79
2022/12/10 02:32:02;;;;;;;21.52;18.27;;;2.70;99.90;;;;;;6081242;23;20275;-80
2022/12/10 02:34:37;;;;;;;22.45;18.40;;;2.70;99.90;;;;;;6081835;23;20197;-78
2022/12/10 02:37:09;;;;;;;21.02;18.23;;;2.70;99.90;;;;;;6059620;23;20277;-78
2022/12/10 02:39:42;;;;;;;21.17;18.88;;;2.70;99.90;;;;;;6086705;23;20222;-78
2022/12/10 02:42:12;;;;;;;21.13;17.92;;;2.70;99.90;;;;;;6086721;23;20214;-78
2022/12/10 02:44:43;;;;;;;22.42;18.90;;;2.70;99.90;;;;;;6066267;23;20215;-78
2022/12/10 02:47:12;;;;;;;22.95;19.30;;;2.60;99.90;;;;;;6081808;23;20194;-78
2022/12/10 02:49:42;;;;;;;21.20;18.42;;;2.60;99.90;;;;;;6064726;23;20205;-78
2022/12/10 02:52:11;;;;;;;21.77;19.13;;;2.60;99.90;;;;;;6084202;23;20203;-77
2022/12/10 02:54:41;;;;;;;21.02;18.08;;;2.60;99.90;;;;;;6076180;23;20245;-78
2022/12/10 02:57:24;;;;;;;20.90;18.65;;;2.60;99.90;;;;;;6088484;23;20200;-78
2022/12/10 03:00:09;;;;;;;22.23;19.05;;;2.60;99.90;;;;;;6082705;23;20659;-78
2022/12/10 03:02:48;;;;;;;20.80;18.25;;;2.60;99.90;;;;;;6088517;23;20532;-78
2022/12/10 03:05:20;;;;;;;19.60;17.50;;;2.60;99.90;;;;;;6079552;23;20297;-78
2022/12/10 03:07:59;;;;;;;26.45;20.15;;;2.60;99.90;;;;;;6086094;23;20308;-78
2022/12/10 03:10:30;;;;;;;21.73;19.38;;;2.60;99.90;;;;;;6087319;23;20198;-78
2022/12/10 03:13:01;;;;;;;21.45;18.00;;;2.50;99.90;;;;;;6085524;23;20290;-78
2022/12/10 03:15:34;;;;;;;22.02;19.30;;;2.50;99.90;;;;;;6079181;23;20233;-78
2022/12/10 03:18:04;;;;;;;23.42;20.80;;;2.50;99.90;;;;;;6084882;23;20248;-78
2022/12/10 03:20:34;;;;;;;22.92;19.25;;;2.40;99.90;;;;;;6088087;23;20558;-78
2022/12/10 03:23:04;;;;;;;21.15;18.40;;;2.40;99.90;;;;;;6078445;23;20635;-78
2022/12/10 03:25:33;;;;;;;20.42;18.33;;;2.40;99.90;;;;;;6085255;23;20192;-78
2022/12/10 03:28:01;;;;;;;20.27;18.05;;;2.30;99.90;;;;;;6090327;23;20197;-78
2022/12/10 03:30:34;;;;;;;22.67;19.35;;;2.30;99.90;;;;;;6083336;23;20302;-78
2022/12/10 03:33:02;;;;;;;21.88;19.50;;;2.30;99.90;;;;;;6062734;23;20205;-78
2022/12/10 03:35:30;;;;;;;21.98;19.15;;;2.20;99.90;;;;;;6066202;23;20206;-78
2022/12/10 03:37:57;;;;;;;21.35;18.85;;;2.20;99.90;;;;;;6066664;23;20287;-77
2022/12/10 03:40:26;;;;;;;21.73;19.42;;;2.30;99.90;;;;;;6086535;23;20245;-77
2022/12/10 03:42:54;;;;;;;21.77;19.42;;;2.30;99.90;;;;;;6012940;23;20205;-78
2022/12/10 03:45:21;;;;;;;20.20;17.90;;;2.30;99.90;;;;;;6080090;23;20200;-79
2022/12/10 03:47:50;;;;;;;22.25;19.10;;;2.30;99.90;;;;;;6090814;23;20695;-77
2022/12/10 03:50:19;;;;;;;21.05;18.92;;;2.30;99.90;;;;;;6089474;23;20270;-78
2022/12/10 03:52:46;;;;;;;22.90;19.90;;;2.30;99.90;;;;;;6089990;23;20634;-78
2022/12/10 03:55:14;;;;;;;21.10;18.85;;;2.30;99.90;;;;;;6077953;23;20258;-78
2022/12/10 03:57:42;;;;;;;21.15;18.83;;;2.30;99.90;;;;;;6083678;23;20223;-78
2022/12/10 04:00:11;;;;;;;22.42;18.83;;;2.30;99.90;;;;;;6059686;23;20203;-78
2022/12/10 04:02:38;;;;;;;25.70;20.67;;;2.30;99.90;;;;;;6081075;23;20281;-78
2022/12/10 04:05:08;;;;;;;21.05;18.65;;;2.20;99.90;;;;;;6086747;23;20256;-78
2022/12/10 04:07:35;;;;;;;22.13;19.83;;;2.20;99.90;;;;;;6082495;23;20203;-78
2022/12/10 04:10:03;;;;;;;23.30;19.48;;;2.20;99.90;;;;;;6053904;23;20198;-77
2022/12/10 04:12:31;;;;;;;24.92;19.33;;;2.20;99.90;;;;;;6088498;23;20197;-77
2022/12/10 04:17:43;;;;;;;22.90;19.80;;;2.10;99.90;;;;;;6083406;23;20668;-78
2022/12/10 04:28:22;;;;;;;21.88;19.25;;;2.10;99.90;;;;;;6085222;23;20265;-77
2022/12/10 04:30:49;;;;;;;23.83;20.77;;;2.10;99.90;;;;;;6066714;23;20194;-77
2022/12/10 04:33:16;;;;;;;24.10;20.92;;;2.00;99.90;;;;;;6086575;23;20225;-78
2022/12/10 04:35:46;;;;;;;24.65;21.17;;;2.00;99.90;;;;;;6086943;23;20272;-78
2022/12/10 04:38:14;;;;;;;24.80;21.15;;;2.00;99.90;;;;;;6073050;23;20269;-78
2022/12/10 04:40:41;;;;;;;25.85;21.27;;;2.00;99.90;;;;;;6056427;23;20261;-78
2022/12/10 04:43:08;;;;;;;26.38;21.38;;;2.00;99.90;;;;;;6085473;23;20299;-78
2022/12/10 04:45:36;;;;;;;22.42;20.00;;;1.90;99.90;;;;;;6081433;23;20315;-78
2022/12/10 04:48:03;;;;;;;23.92;21.05;;;1.90;99.90;;;;;;6069671;23;20213;-78
2022/12/10 04:50:31;;;;;;;24.92;20.40;;;1.90;99.90;;;;;;6085981;23;20547;-78
2022/12/10 04:52:59;;;;;;;23.23;20.83;;;1.90;99.90;;;;;;6086345;23;20348;-78
2022/12/10 04:55:26;;;;;;;24.75;19.65;;;1.90;99.90;;;;;;6081084;23;20300;-78
2022/12/10 04:57:53;;;;;;;22.45;19.50;;;1.90;99.90;;;;;;6082307;23;20199;-78
2022/12/10 05:00:20;;;;;;;24.80;20.38;;;1.90;99.90;;;;;;6084529;23;20225;-78
2022/12/10 05:02:50;;;;;;;24.08;21.50;;;1.90;99.90;;;;;;6049004;23;20735;-78
2022/12/10 05:05:18;;;;;;;23.33;20.83;;;1.90;99.90;;;;;;6086031;23;20198;-78
2022/12/10 05:07:46;;;;;;;25.75;20.55;;;1.90;99.90;;;;;;6086376;23;20194;-78
2022/12/10 05:10:15;;;;;;;25.30;21.33;;;1.90;99.90;;;;;;6087561;23;20254;-78
2022/12/10 05:12:43;;;;;;;23.38;20.88;;;1.80;99.90;;;;;;6086610;23;20192;-78
2022/12/10 05:15:10;;;;;;;23.77;21.17;;;1.90;99.90;;;;;;6074493;23;20214;-78
2022/12/10 05:17:38;;;;;;;23.95;21.30;;;1.90;99.90;;;;;;6077581;23;20679;-81
2022/12/10 05:20:07;;;;;;;23.13;20.55;;;1.90;99.90;;;;;;6087839;23;20204;-78
2022/12/10 05:25:21;;;;;;;25.88;20.95;;;1.90;99.90;;;;;;6069653;23;20212;-78
2022/12/10 05:27:49;;;;;;;24.38;21.77;;;1.90;99.90;;;;;;6086377;23;20745;-78
2022/12/10 05:30:16;;;;;;;24.08;21.20;;;1.90;99.90;;;;;;6085307;23;20283;-78
2022/12/10 05:32:44;;;;;;;24.52;20.90;;;1.90;99.90;;;;;;6070102;23;20276;-78
2022/12/10 05:35:11;;;;;;;24.70;20.23;;;1.90;99.90;;;;;;6085941;23;20228;-78
2022/12/10 05:37:38;;;;;;;23.25;19.90;;;1.90;99.90;;;;;;6059589;23;20195;-78
2022/12/10 05:40:07;;;;;;;25.98;21.70;;;1.90;99.90;;;;;;6072713;23;20518;-78
2022/12/10 05:42:38;;;;;;;22.70;20.20;;;1.90;99.90;;;;;;6088606;23;20270;-78
2022/12/10 05:45:06;;;;;;;23.25;19.90;;;1.90;99.90;;;;;;6062380;23;20279;-78
2022/12/10 05:47:33;;;;;;;23.67;21.10;;;1.90;99.90;;;;;;6080425;23;20647;-78
2022/12/10 05:50:00;;;;;;;24.50;21.63;;;2.00;99.90;;;;;;6040657;23;20250;-78
2022/12/10 05:52:28;;;;;;;25.77;21.55;;;2.00;99.90;;;;;;6066245;23;20269;-78
2022/12/10 05:54:55;;;;;;;24.50;20.70;;;2.00;99.90;;;;;;6084403;23;20219;-78
2022/12/10 05:57:22;;;;;;;25.23;22.38;;;2.00;99.90;;;;;;6062379;23;20327;-78
2022/12/10 05:59:51;;;;;;;23.23;20.42;;;2.00;99.90;;;;;;6085445;23;20196;-78
2022/12/10 06:02:18;;;;;;;23.90;21.33;;;2.00;99.90;;;;;;6089517;23;20251;-78
2022/12/10 06:04:46;;;;;;;23.73;21.25;;;2.00;99.90;;;;;;6091864;23;20201;-78
2022/12/10 06:07:13;;;;;;;23.63;21.10;;;2.00;99.90;;;;;;6083014;23;20193;-78
2022/12/10 06:09:41;;;;;;;23.83;20.70;;;2.00;99.90;;;;;;6063793;23;20265;-78
2022/12/10 06:12:08;;;;;;;23.42;20.40;;;2.00;99.90;;;;;;6076335;23;20538;-77
2022/12/10 06:14:35;;;;;;;24.27;20.52;;;2.00;99.90;;;;;;6083027;23;20219;-77
2022/12/10 06:17:03;;;;;;;22.95;19.15;;;2.00;99.90;;;;;;6085784;23;20218;-78
2022/12/10 06:19:31;;;;;;;21.90;19.55;;;2.00;99.90;;;;;;6084374;23;20271;-77
2022/12/10 06:21:59;;;;;;;23.67;20.98;;;2.00;99.90;;;;;;6088688;23;20219;-78
2022/12/10 06:24:26;;;;;;;21.85;19.02;;;2.00;99.90;;;;;;6087432;23;20283;-78
2022/12/10 06:26:53;;;;;;;24.02;19.52;;;2.00;99.90;;;;;;6085277;23;20201;-79
2022/12/10 06:29:21;;;;;;;23.45;20.55;;;2.00;99.90;;;;;;6076424;23;20201;-79
2022/12/10 06:31:48;;;;;;;22.27;19.25;;;2.00;99.90;;;;;;6061829;23;20192;-79
2022/12/10 06:34:16;;;;;;;22.67;20.17;;;2.00;99.90;;;;;;6084856;23;20561;-79
2022/12/10 06:36:44;;;;;;;23.55;20.55;;;2.10;99.90;;;;;;6075684;23;20276;-79
2022/12/10 06:39:12;;;;;;;23.90;20.17;;;2.10;99.90;;;;;;6083839;23;20607;-79
2022/12/10 06:41:43;;;;;;;22.63;19.92;;;2.10;99.90;;;;;;6074295;23;20244;-79
2022/12/10 06:44:11;;;;;;;22.83;20.35;;;2.10;99.90;;;;;;6084662;23;20561;-79
2022/12/10 06:46:38;;;;;;;23.55;20.02;;;2.10;99.90;;;;;;6075388;23;20272;-79
2022/12/10 06:49:05;;;;;;;24.35;20.20;;;2.10;99.90;;;;;;6074953;23;20627;-79
2022/12/10 06:51:34;;;;;;;22.35;19.38;;;2.10;99.90;;;;;;6079923;23;20219;-78
2022/12/10 06:54:02;;;;;;;26.02;21.30;;;2.10;99.90;;;;;;6081091;23;20221;-79
2022/12/10 06:56:29;;;;;;;23.00;19.88;;;2.10;99.90;;;;;;6074829;23;20261;-79
2022/12/10 06:58:56;;;;;;;24.50;20.73;;;2.10;99.90;;;;;;6080342;23;20197;-79
2022/12/10 07:01:26;;;;;;;22.80;19.50;;;2.10;99.90;;;;;;6076809;23;20240;-79
2022/12/10 07:03:54;;;;;;;22.05;19.60;;;2.10;99.90;;;;;;6083087;23;20199;-79
2022/12/10 07:06:23;;;;;;;22.00;19.30;;;2.10;99.90;;;;;;6057297;23;20655;-79
2022/12/10 07:08:53;;;;;;;22.52;20.17;;;2.10;99.90;;;;;;6060790;23;20198;-79
2022/12/10 07:11:24;;;;;;;25.75;21.38;;;2.10;99.90;;;;;;6069332;23;20220;-79
2022/12/10 07:13:53;;;;;;;22.58;19.38;;;2.10;99.90;;;;;;6087818;23;20198;-79
2022/12/10 07:16:22;;;;;;;23.02;20.02;;;2.10;99.90;;;;;;6063297;23;20196;-79
2022/12/10 07:18:50;;;;;;;21.38;18.48;;;2.10;99.90;;;;;;6082640;23;20710;-79
2022/12/10 07:21:20;;;;;;;25.23;19.95;;;2.20;99.90;;;;;;6083650;23;20206;-79
2022/12/10 07:23:48;;;;;;;21.23;18.55;;;2.10;99.90;;;;;;6085822;23;20270;-79
2022/12/10 07:26:16;;;;;;;21.98;19.70;;;2.10;99.90;;;;;;6086880;23;20241;-79
2022/12/10 07:28:44;;;;;;;21.77;19.45;;;2.20;99.90;;;;;;6083609;23;20224;-79
2022/12/10 07:31:11;;;;;;;21.63;19.33;;;2.20;99.90;;;;;;6088260;23;20294;-79
2022/12/10 07:33:39;;;;;;;22.38;19.95;;;2.20;99.90;;;;;;6079288;23;20725;-81
2022/12/10 07:36:10;;;;;;;22.77;20.38;;;2.20;99.90;;;;;;6083205;23;20238;-80
2022/12/10 07:38:37;;;;;;;22.48;20.02;;;2.20;99.90;;;;;;6087319;23;20215;-80
2022/12/10 07:41:05;;;;;;;23.85;20.52;;;2.20;99.90;;;;;;6084305;23;20199;-80
2022/12/10 07:43:36;;;;;;;22.33;19.98;;;2.20;99.90;;;;;;6075049;23;20243;-80
2022/12/10 07:46:07;;;;;;;22.30;19.90;;;2.20;99.90;;;;;;6071126;23;20220;-80
2022/12/10 07:48:38;;;;;;;23.70;20.90;;;2.20;99.90;;;;;;6085935;23;20695;-80
2022/12/10 07:51:07;;;;;;;23.17;19.35;;;2.10;99.90;;;;;;6088715;23;20206;-80
2022/12/10 07:53:35;;;;;;;24.45;21.30;;;2.20;99.90;;;;;;6088090;23;20235;-80
2022/12/10 07:56:03;;;;;;;24.98;21.23;;;2.10;99.90;;;;;;6085351;23;20589;-80
2022/12/10 07:58:31;;;;;;;22.90;20.45;;;2.20;99.90;;;;;;6084436;23;20216;-80
2022/12/10 08:00:59;;;;;;;23.42;20.42;;;2.20;99.90;;;;;;6071054;23;20194;-80
2022/12/10 08:03:26;;;;;;;24.88;21.00;;;2.10;99.90;;;;;;6089359;23;20248;-81
2022/12/10 08:06:02;;;;;;;22.15;19.23;;;2.20;99.90;;;;;;6087438;23;20218;-80
2022/12/10 08:08:30;;;;;;;24.83;20.80;;;2.20;99.90;;;;;;6089359;23;20193;-81
2022/12/10 08:11:00;;;;;;;23.23;20.13;;;2.20;99.90;;;;;;6081104;23;20287;-77
2022/12/10 08:13:27;;;;;;;20.40;18.17;;;2.30;99.90;;;;;;6075481;23;20574;-81
2022/12/10 08:15:57;;;;;;;23.45;19.77;;;3.00;99.90;;;;;;6036991;23;20269;-82
2022/12/10 08:18:25;;;;;;;22.00;19.73;;;3.10;99.90;;;;;;6081025;23;20203;-82
2022/12/10 08:20:53;;;;;;;22.38;19.88;;;3.00;99.90;;;;;;6080139;23;20194;-81
2022/12/10 08:23:20;;;;;;;21.75;19.45;;;2.90;99.90;;;;;;6081785;23;20256;-81
2022/12/10 08:25:48;;;;;;;24.45;20.42;;;2.80;99.90;;;;;;6066619;23;20220;-81
2022/12/10 08:28:16;;;;;;;24.90;21.30;;;2.70;99.90;;;;;;6064673;23;20251;-81
2022/12/10 08:30:47;;;;;;;22.48;20.10;;;2.70;99.90;;;;;;6095759;23;20194;-76
2022/12/10 08:33:14;;;;;;;21.85;19.10;;;2.70;99.90;;;;;;6102941;23;20617;-75
2022/12/10 08:35:42;;;;;;;22.08;19.77;;;2.70;99.90;;;;;;6078762;23;20194;-80
2022/12/10 08:38:10;;;;;;;22.33;19.23;;;2.70;99.90;;;;;;6080271;23;20253;-79
2022/12/10 08:40:41;;;;;;;22.80;20.30;;;2.70;99.90;;;;;;6089878;23;20229;-80
2022/12/10 08:43:10;;;;;;;22.80;19.85;;;2.80;99.90;;;;;;6041902;23;20223;-78
2022/12/10 08:45:37;;;;;;;21.88;19.27;;;2.80;99.90;;;;;;6070372;23;20650;-78
2022/12/10 08:48:05;;;;;;;21.58;19.27;;;2.80;99.90;;;;;;6077067;23;20191;-79
2022/12/10 08:50:32;;;;;;;22.23;19.67;;;2.90;99.90;;;;;;6087225;23;20192;-78
2022/12/10 08:53:01;;;;;;;23.70;18.80;;;2.90;99.90;;;;;;6084697;23;20188;-79
2022/12/10 08:55:28;;;;;;;27.95;21.02;;;2.90;99.90;;;;;;6083580;23;20276;-78
2022/12/10 08:57:56;;;;;;;22.13;19.60;;;3.00;99.90;;;;;;6086197;23;20217;-76
2022/12/10 09:00:24;;;;;;;23.13;19.83;;;3.00;99.90;;;;;;6087478;23;20191;-76
2022/12/10 09:02:51;;;;;;;24.48;20.50;;;3.00;99.90;;;;;;6072777;23;20216;-77
2022/12/10 09:05:20;;;;;;;22.40;19.42;;;3.00;99.90;;;;;;6088138;23;20274;-77
2022/12/10 09:07:48;;;;;;;22.65;20.23;;;3.00;99.90;;;;;;6087465;23;20232;-77
2022/12/10 09:10:17;;;;;;;22.35;19.13;;;3.00;99.90;;;;;;6078360;23;20210;-77
2022/12/10 09:12:45;;;;;;;20.50;18.30;;;3.00;99.90;;;;;;6054718;23;20189;-77
2022/12/10 09:15:13;;;;;;;25.20;19.70;;;3.00;99.90;;;;;;6061425;23;20263;-77
2022/12/10 09:17:40;;;;;;;22.17;19.88;;;3.00;99.90;;;;;;6078585;23;20371;-77
2022/12/10 09:20:07;;;;;;;21.92;19.55;;;3.00;99.90;;;;;;6089584;23;20195;-77
2022/12/10 09:22:37;;;;;;;21.88;19.58;;;3.10;99.90;;;;;;6063112;23;20748;-77
2022/12/10 09:25:09;;;;;;;22.00;19.02;;;3.10;99.90;;;;;;6083869;23;20192;-77
2022/12/10 09:27:38;;;;;;;21.85;19.05;;;3.20;99.90;;;;;;6083012;23;20582;-77
2022/12/10 09:30:07;;;;;;;21.23;18.65;;;3.20;99.90;;;;;;6062801;23;20203;-77
2022/12/10 09:32:34;;;;;;;20.73;18.63;;;3.30;99.90;;;;;;6068284;23;20282;-77
2022/12/10 09:35:01;;;;;;;22.40;20.00;;;3.30;99.90;;;;;;6089096;23;20199;-77
2022/12/10 09:37:28;;;;;;;21.05;18.65;;;3.40;99.90;;;;;;6070263;23;20192;-77
2022/12/10 09:39:55;;;;;;;21.85;19.65;;;3.40;99.90;;;;;;6090617;23;20206;-78
2022/12/10 09:42:34;;;;;;;20.73;18.52;;;3.40;99.90;;;;;;6083248;23;21975;-78
2022/12/10 09:45:13;;;;;;;20.38;18.15;;;3.30;99.90;;;;;;6087699;23;20198;-76
2022/12/10 09:47:50;;;;;;;24.73;20.55;;;3.20;99.90;;;;;;6083218;23;20195;-76
2022/12/10 09:50:24;;;;;;;20.40;18.20;;;3.20;99.90;;;;;;6075607;23;20649;-77
2022/12/10 09:52:55;;;;;;;20.77;18.40;;;3.20;99.90;;;;;;6070515;23;20193;-77
2022/12/10 09:55:31;;;;;;;21.05;18.75;;;3.20;99.90;;;;;;6037811;23;20198;-77
2022/12/10 09:58:00;;;;;;;20.50;18.30;;;3.20;99.90;;;;;;6061798;23;20192;-77
2022/12/10 10:00:34;;;;;;;21.65;18.95;;;3.20;99.90;;;;;;6082752;23;20703;-77
2022/12/10 10:03:03;;;;;;;20.85;18.05;;;3.20;99.90;;;;;;6077735;23;20213;-77
2022/12/10 10:05:33;;;;;;;20.63;18.33;;;3.20;99.90;;;;;;6091036;23;20195;-77
2022/12/10 10:08:03;;;;;;;21.40;18.70;;;3.20;99.90;;;;;;6077582;23;20207;-77
2022/12/10 10:10:32;;;;;;;20.00;17.90;;;3.20;99.90;;;;;;6076749;23;20607;-77
2022/12/10 10:13:11;;;;;;;20.35;18.25;;;3.30;99.90;;;;;;6085740;23;20353;-77
2022/12/10 10:15:44;;;;;;;20.70;18.45;;;3.40;99.90;;;;;;6089387;23;20547;-75
2022/12/10 10:18:18;;;;;;;20.90;17.77;;;3.40;99.90;;;;;;6084004;23;20249;-77
2022/12/10 10:20:47;;;;;;;20.52;18.05;;;3.50;99.90;;;;;;6089339;23;20643;-77
2022/12/10 10:23:16;;;;;;;21.90;18.65;;;3.50;99.90;;;;;;6088769;23;20254;-77
2022/12/10 10:25:43;;;;;;;20.67;18.52;;;3.40;99.90;;;;;;6067413;23;20608;-77
2022/12/10 10:28:13;;;;;;;21.42;18.10;;;3.40;99.90;;;;;;6059624;23;20234;-76
2022/12/10 10:30:44;;;;;;;31.77;24.10;;;3.40;99.90;;;;;;6089983;23;20195;-77
2022/12/10 10:33:15;;;;;;;21.23;18.98;;;3.40;99.90;;;;;;6088481;23;20632;-76
2022/12/10 10:35:48;;;;;;;20.33;18.00;;;3.40;99.90;;;;;;6085821;23;20657;-77
2022/12/10 10:38:20;;;;;;;22.30;20.00;;;3.50;99.90;;;;;;6066567;23;20544;-77
2022/12/10 10:40:52;;;;;;;21.00;18.65;;;3.50;99.90;;;;;;6074887;23;20246;-77
2022/12/10 10:43:25;;;;;;;21.25;18.50;;;3.60;99.90;;;;;;6042999;23;20274;-77
2022/12/10 10:45:57;;;;;;;19.85;17.85;;;3.60;99.90;;;;;;6092201;23;20306;-78
2022/12/10 10:48:26;;;;;;;21.00;18.83;;;3.60;99.90;;;;;;6083986;23;20299;-78
2022/12/10 10:50:56;;;;;;;20.65;18.55;;;3.50;99.90;;;;;;6088225;23;20194;-77
2022/12/10 10:53:34;;;;;;;20.58;18.38;;;3.40;99.90;;;;;;6085530;23;20225;-77
2022/12/10 10:56:16;;;;;;;21.58;18.45;;;3.40;99.90;;;;;;6065797;23;20206;-77
2022/12/10 10:58:51;;;;;;;21.25;17.23;;;3.30;99.90;;;;;;6089572;23;20241;-77
2022/12/10 11:01:20;;;;;;;21.10;18.40;;;3.30;99.90;;;;;;6086723;23;20201;-77
2022/12/10 11:03:50;;;;;;;20.80;18.60;;;3.30;99.90;;;;;;6074800;23;20735;-77
2022/12/10 11:06:18;;;;;;;21.40;19.10;;;3.30;99.90;;;;;;6083173;23;20191;-76
2022/12/10 11:08:47;;;;;;;20.63;17.35;;;3.30;99.90;;;;;;6077904;23;20258;-76
2022/12/10 11:11:20;;;;;;;22.30;19.90;;;3.40;99.90;;;;;;6078222;23;20180;-76
2022/12/10 11:13:48;;;;;;;20.75;18.48;;;3.40;99.90;;;;;;6074912;23;20195;-77
2022/12/10 11:16:21;;;;;;;20.08;17.98;;;3.50;99.90;;;;;;6088054;23;20322;-77
2022/12/10 11:19:02;;;;;;;20.85;18.65;;;3.60;99.90;;;;;;6084160;23;20196;-76
2022/12/10 11:21:30;;;;;;;19.27;17.30;;;3.70;99.90;;;;;;6087508;23;20252;-77
2022/12/10 11:23:58;;;;;;;18.90;16.90;;;3.70;99.90;;;;;;6057925;23;20240;-76
2022/12/10 11:26:46;;;;;;;19.50;17.40;;;3.70;99.90;;;;;;6074054;23;20199;-77
2022/12/10 11:29:25;;;;;;;20.88;18.77;;;3.80;99.90;;;;;;6084996;23;20249;-77
2022/12/10 11:32:08;;;;;;;20.10;18.00;;;3.80;99.90;;;;;;6076795;23;20275;-77
2022/12/10 11:34:49;;;;;;;20.20;18.05;;;3.90;99.90;;;;;;6080537;23;20267;-77
2022/12/10 11:37:27;;;;;;;20.67;17.63;;;4.00;99.90;;;;;;6085550;23;20691;-77
2022/12/10 11:40:36;;;;;;;18.65;16.58;;;3.90;99.90;;;;;;6057072;23;20202;-76
2022/12/10 11:43:17;;;;;;;18.60;16.70;;;3.90;99.90;;;;;;5962297;23;20285;-76
2022/12/10 11:45:54;;;;;;;18.92;16.92;;;4.00;99.90;;;;;;6006966;23;20269;-76
2022/12/10 11:48:38;;;;;;;20.67;18.17;;;4.00;99.90;;;;;;6058084;23;20637;-76
2022/12/10 11:51:09;;;;;;;20.70;18.02;;;4.00;99.90;;;;;;6073333;23;20668;-75
2022/12/10 11:53:48;;;;;;;19.98;16.83;;;4.00;99.90;;;;;;6095074;23;20653;-76
2022/12/10 11:56:25;;;;;;;18.90;16.90;;;4.00;99.90;;;;;;6084189;23;20263;-76
2022/12/10 11:59:07;;;;;;;19.00;17.00;;;4.00;99.90;;;;;;6078035;23;20225;-76
2022/12/10 12:01:48;;;;;;;18.67;16.80;;;4.10;99.90;;;;;;6042264;23;20268;-76
2022/12/10 12:04:42;;;;;;;17.33;15.63;;;4.20;99.90;;;;;;6078101;23;20255;-76
2022/12/10 12:07:34;;;;;;;18.80;16.80;;;4.20;99.90;;;;;;6078175;23;20240;-76
2022/12/10 12:10:36;;;;;;;17.95;16.05;;;4.20;99.90;;;;;;6086707;23;20329;-76
2022/12/10 12:13:09;;;;;;;17.77;15.98;;;4.20;99.90;;;;;;6084058;23;20724;-76
2022/12/10 12:15:41;;;;;;;17.00;15.23;;;4.20;99.90;;;;;;6078371;23;20270;-76
2022/12/10 12:18:17;;;;;;;14.05;12.63;;;4.10;99.90;;;;;;6087319;23;20188;-81
2022/12/10 12:20:50;;;;;;;16.10;14.50;;;4.20;99.90;;;;;;6076709;23;20194;-81
2022/12/10 12:23:25;;;;;;;15.77;14.15;;;4.80;99.90;;;;;;6077489;23;20208;-81
2022/12/10 12:25:57;;;;;;;16.05;14.45;;;5.30;99.90;;;;;;6085353;23;20203;-81
2022/12/10 12:28:31;;;;;;;18.65;16.83;;;5.70;99.90;;;;;;6085246;23;20188;-81
2022/12/10 12:31:03;;;;;;;23.13;20.98;;;5.80;99.90;;;;;;6073663;23;20187;-75
2022/12/10 12:33:39;;;;;;;22.55;20.35;;;5.80;99.90;;;;;;6086404;23;20199;-76
2022/12/10 12:36:12;;;;;;;20.83;16.70;;;5.50;99.90;;;;;;6068167;23;20191;-76
2022/12/10 12:38:46;;;;;;;16.95;15.13;;;5.30;99.90;;;;;;6085563;23;20576;-76
2022/12/10 12:41:17;;;;;;;17.15;15.35;;;5.10;99.90;;;;;;6085177;23;20594;-76
2022/12/10 12:43:52;;;;;;;17.88;15.98;;;4.90;99.90;;;;;;6082453;23;20279;-74
2022/12/10 12:46:27;;;;;;;19.17;15.85;;;4.70;99.90;;;;;;6087545;23;20223;-76
2022/12/10 12:48:58;;;;;;;16.70;15.00;;;4.60;99.90;;;;;;6084438;23;20211;-76
2022/12/10 12:51:30;;;;;;;16.98;15.27;;;4.50;99.90;;;;;;6072465;23;20227;-74
2022/12/10 12:53:59;;;;;;;17.52;15.02;;;4.40;99.90;;;;;;6083896;23;20183;-75
2022/12/10 12:56:43;;;;;;;19.27;17.27;;;4.40;99.90;;;;;;6086539;23;20195;-76
2022/12/10 12:59:21;;;;;;;26.95;22.25;;;4.40;99.90;;;;;;6067385;23;20355;-76
2022/12/10 13:01:54;;;;;;;19.75;17.67;;;4.40;99.90;;;;;;6085865;23;20281;-76
2022/12/10 13:04:22;;;;;;;19.75;16.85;;;4.40;99.90;;;;;;6082994;23;20272;-76
2022/12/10 13:07:27;;;;;;;33.22;29.77;;;4.40;99.90;;;;;;6073980;23;20221;-76